createdAt,value
2023-06-19T00:01:29.427Z,90.30
2023-06-19T00:03:56.176Z,90.40
2023-06-19T00:06:22.947Z,90.40
2023-06-19T00:08:49.554Z,90.40
2023-06-19T00:11:16.237Z,90.40
2023-06-19T00:13:42.867Z,90.40
2023-06-19T00:16:09.579Z,90.50
2023-06-19T00:18:40.813Z,90.30
2023-06-19T00:21:08.407Z,90.30
2023-06-19T00:23:35.409Z,90.50
2023-06-19T00:26:02.297Z,90.60
2023-06-19T00:28:29.393Z,90.60
2023-06-19T00:30:56.117Z,90.90
2023-06-19T00:33:22.812Z,90.90
2023-06-19T00:35:52.790Z,90.90
2023-06-19T00:38:19.451Z,91.00
2023-06-19T00:40:46.137Z,90.90
2023-06-19T00:43:12.838Z,90.90
2023-06-19T00:45:39.756Z,90.80
2023-06-19T00:48:06.954Z,90.80
2023-06-19T00:50:33.970Z,90.90
2023-06-19T00:53:02.585Z,90.90
2023-06-19T00:55:30.855Z,91.00
2023-06-19T00:57:57.729Z,91.20
2023-06-19T01:00:24.564Z,91.20
2023-06-19T01:02:51.514Z,91.10
2023-06-19T01:05:18.679Z,91.10
2023-06-19T01:07:57.721Z,91.10
2023-06-19T01:10:30.326Z,91.10
2023-06-19T01:12:59.842Z,91.10
2023-06-19T01:15:27.027Z,91.00
2023-06-19T01:17:55.223Z,90.90
2023-06-19T01:20:22.201Z,90.90
2023-06-19T01:22:49.122Z,91.00
2023-06-19T01:25:15.848Z,91.00
2023-06-19T01:27:43.599Z,91.00
2023-06-19T01:30:11.394Z,91.10
2023-06-19T01:32:38.234Z,91.10
2023-06-19T01:35:05.363Z,91.10
2023-06-19T01:37:34.395Z,91.20
2023-06-19T01:40:02.920Z,91.10
2023-06-19T01:42:29.538Z,91.00
2023-06-19T01:44:56.210Z,91.00
2023-06-19T01:47:22.966Z,91.00
2023-06-19T01:49:50.306Z,91.00
2023-06-19T01:52:16.989Z,90.90
2023-06-19T01:54:43.582Z,91.10
2023-06-19T01:57:10.784Z,91.10
2023-06-19T01:59:37.445Z,91.00
2023-06-19T02:02:05.151Z,90.80
2023-06-19T02:04:31.792Z,90.90
2023-06-19T02:06:58.507Z,91.00
2023-06-19T02:09:25.160Z,91.00
2023-06-19T02:11:51.772Z,91.10
2023-06-19T02:14:18.805Z,91.10
2023-06-19T02:16:45.483Z,91.10
2023-06-19T02:19:12.205Z,91.10
2023-06-19T02:21:39.086Z,91.10
2023-06-19T02:24:05.993Z,91.10
2023-06-19T02:26:32.909Z,91.10
2023-06-19T02:28:59.614Z,91.20
2023-06-19T02:31:26.221Z,91.10
2023-06-19T02:33:52.910Z,91.10
2023-06-19T02:36:22.537Z,91.10
2023-06-19T02:38:49.705Z,91.00
2023-06-19T02:41:16.507Z,91.10
2023-06-19T02:43:43.639Z,91.20
2023-06-19T02:46:13.149Z,91.10
2023-06-19T02:48:40.204Z,91.20
2023-06-19T02:51:06.930Z,91.10
2023-06-19T02:53:33.558Z,91.10
2023-06-19T02:56:00.265Z,91.10
2023-06-19T02:58:27.932Z,91.10
2023-06-19T03:00:54.605Z,91.20
2023-06-19T03:03:21.384Z,91.10
2023-06-19T03:05:48.081Z,91.10
2023-06-19T03:08:14.742Z,91.10
2023-06-19T03:10:41.423Z,91.20
2023-06-19T03:13:08.100Z,91.20
2023-06-19T03:15:34.730Z,91.20
2023-06-19T03:18:04.435Z,91.30
2023-06-19T03:20:31.218Z,91.10
2023-06-19T03:22:57.869Z,91.00
2023-06-19T03:25:24.508Z,91.00
2023-06-19T03:27:51.199Z,91.20
2023-06-19T03:30:19.611Z,91.30
2023-06-19T03:32:46.383Z,91.20
2023-06-19T03:35:13.124Z,91.30
2023-06-19T03:37:39.780Z,91.30
2023-06-19T03:40:06.768Z,91.40
2023-06-19T03:42:33.490Z,91.40
2023-06-19T03:45:00.141Z,91.40
2023-06-19T03:47:26.816Z,91.30
2023-06-19T03:49:54.808Z,91.30
2023-06-19T03:52:21.999Z,91.30
2023-06-19T03:54:48.661Z,91.30
2023-06-19T03:57:15.337Z,91.30
2023-06-19T03:59:42.006Z,91.20
2023-06-19T04:02:08.648Z,91.40
2023-06-19T04:04:35.307Z,91.40
2023-06-19T04:07:01.917Z,91.40
2023-06-19T04:09:28.518Z,91.50
2023-06-19T04:11:55.233Z,91.30
2023-06-19T04:14:24.054Z,91.30
2023-06-19T04:16:50.726Z,91.20
2023-06-19T04:19:17.436Z,91.50
2023-06-19T04:21:44.049Z,91.60
2023-06-19T04:24:11.378Z,91.50
2023-06-19T04:26:38.121Z,91.50
2023-06-19T04:29:06.154Z,91.40
2023-06-19T04:31:33.113Z,91.40
2023-06-19T04:33:59.796Z,91.40
2023-06-19T04:36:26.510Z,91.50
2023-06-19T04:38:53.561Z,91.40
2023-06-19T04:41:20.386Z,91.50
2023-06-19T04:43:47.032Z,91.40
2023-06-19T04:46:13.918Z,91.50
2023-06-19T04:48:41.535Z,91.50
2023-06-19T04:51:08.229Z,91.70
2023-06-19T04:53:34.931Z,91.70
2023-06-19T04:56:02.666Z,91.70
2023-06-19T04:58:29.731Z,91.50
2023-06-19T05:00:56.399Z,91.40
2023-06-19T05:03:23.351Z,91.30
2023-06-19T05:05:50.103Z,91.40
2023-06-19T05:08:16.858Z,91.80
2023-06-19T05:10:46.236Z,91.70
2023-06-19T05:13:13.298Z,91.60
2023-06-19T05:15:40.021Z,91.60
2023-06-19T05:18:06.751Z,91.60
2023-06-19T05:20:33.425Z,91.60
2023-06-19T05:23:00.036Z,91.80
2023-06-19T05:25:26.703Z,92.00
2023-06-19T05:27:53.362Z,91.90
2023-06-19T05:30:20.005Z,92.20
2023-06-19T05:32:48.788Z,92.50
2023-06-19T05:35:16.908Z,92.40
2023-06-19T05:37:46.542Z,92.60
2023-06-19T05:40:13.451Z,92.40
2023-06-19T05:42:41.043Z,92.50
2023-06-19T05:45:08.066Z,92.50
2023-06-19T05:47:34.753Z,92.80
2023-06-19T05:50:01.561Z,92.60
2023-06-19T05:52:28.203Z,92.90
2023-06-19T05:54:54.888Z,92.90
2023-06-19T05:57:22.126Z,92.70
2023-06-19T05:59:49.143Z,92.70
2023-06-19T06:02:16.151Z,92.70
2023-06-19T06:04:43.600Z,92.50
2023-06-19T06:07:10.364Z,92.20
2023-06-19T06:09:37.020Z,92.60
2023-06-19T06:12:03.880Z,91.90
2023-06-19T06:14:30.503Z,92.90
2023-06-19T06:16:57.225Z,92.20
2023-06-19T06:19:23.958Z,92.30
2023-06-19T06:21:50.818Z,92.90
2023-06-19T06:24:17.583Z,92.70
2023-06-19T06:26:44.387Z,92.60
2023-06-19T06:29:11.012Z,92.60
2023-06-19T06:31:38.878Z,93.70
2023-06-19T06:34:05.501Z,93.00
2023-06-19T06:39:02.032Z,93.20
2023-06-19T06:41:28.748Z,92.60
2023-06-19T06:43:56.452Z,92.30
2023-06-19T06:46:23.265Z,92.80
2023-06-19T06:48:51.079Z,93.00
2023-06-19T06:51:17.772Z,93.00
2023-06-19T06:53:44.554Z,93.50
2023-06-19T06:56:11.396Z,92.60
2023-06-19T06:58:39.482Z,93.90
2023-06-19T07:01:06.435Z,93.40
2023-06-19T07:03:33.696Z,92.40
2023-06-19T07:06:00.519Z,92.60
2023-06-19T07:08:27.211Z,92.60
2023-06-19T07:10:53.920Z,92.40
2023-06-19T07:13:20.600Z,92.10
2023-06-19T07:15:47.290Z,92.30
2023-06-19T07:18:14.052Z,91.90
2023-06-19T07:20:40.740Z,92.00
2023-06-19T07:23:07.582Z,92.50
2023-06-19T07:25:34.843Z,92.60
2023-06-19T07:28:02.295Z,92.10
2023-06-19T07:30:28.941Z,91.90
2023-06-19T07:32:55.708Z,92.60
2023-06-19T07:35:22.481Z,91.60
2023-06-19T07:37:49.155Z,91.70
2023-06-19T07:40:15.832Z,91.50
2023-06-19T07:42:44.654Z,91.30
2023-06-19T07:45:12.204Z,92.10
2023-06-19T07:47:38.935Z,91.80
2023-06-19T07:50:05.919Z,91.40
2023-06-19T07:52:32.713Z,91.10
2023-06-19T07:54:59.707Z,91.50
2023-06-19T07:57:26.699Z,91.60
2023-06-19T07:59:54.632Z,91.90
2023-06-19T08:02:21.421Z,92.30
2023-06-19T08:04:48.225Z,92.40
2023-06-19T08:07:15.009Z,91.60
2023-06-19T08:09:41.710Z,91.90
2023-06-19T08:12:08.667Z,92.90
2023-06-19T08:14:35.346Z,93.90
2023-06-19T08:17:02.184Z,94.40
2023-06-19T08:19:28.944Z,92.90
2023-06-19T08:21:55.625Z,93.00
2023-06-19T08:24:22.386Z,94.10
2023-06-19T08:26:52.090Z,94.50
2023-06-19T08:29:19.581Z,93.50
2023-06-19T08:31:46.437Z,92.80
2023-06-19T08:34:13.142Z,94.30
2023-06-19T08:36:39.964Z,92.10
2023-06-19T08:39:09.014Z,94.30
2023-06-19T08:41:39.117Z,92.70
2023-06-19T08:44:06.352Z,93.30
2023-06-19T08:46:33.175Z,95.20
2023-06-19T08:49:01.206Z,92.90
2023-06-19T08:51:29.373Z,92.40
2023-06-19T08:53:57.036Z,93.00
2023-06-19T08:56:23.787Z,95.40
2023-06-19T08:58:50.416Z,95.60
2023-06-19T09:01:20.417Z,94.30
2023-06-19T09:03:48.084Z,98.10
2023-06-19T09:06:17.338Z,96.30
2023-06-19T09:08:44.233Z,98.30
2023-06-19T09:11:12.155Z,96.60
2023-06-19T09:13:38.926Z,98.00
2023-06-19T09:16:07.220Z,98.10
2023-06-19T09:18:43.984Z,97.20
2023-06-19T09:21:20.261Z,97.10
2023-06-19T09:23:47.550Z,96.30
2023-06-19T09:26:18.707Z,96.80
2023-06-19T09:28:45.559Z,98.00
2023-06-19T09:31:12.235Z,98.90
2023-06-19T09:33:40.106Z,96.60
2023-06-19T09:36:07.316Z,96.80
2023-06-19T09:38:39.369Z,97.20
2023-06-19T09:41:06.723Z,96.60
2023-06-19T09:43:47.503Z,96.00
2023-06-19T09:46:15.229Z,96.10
2023-06-19T09:48:45.816Z,96.10
2023-06-19T09:51:18.337Z,95.90
2023-06-19T09:53:48.963Z,95.50
2023-06-19T09:56:16.156Z,94.70
2023-06-19T09:58:46.272Z,96.80
2023-06-19T10:01:13.893Z,97.20
2023-06-19T10:03:41.426Z,96.50
2023-06-19T10:06:13.820Z,96.50
2023-06-19T10:08:41.595Z,95.40
2023-06-19T10:11:08.492Z,95.50
2023-06-19T10:13:41.788Z,94.90
2023-06-19T10:16:08.872Z,95.10
2023-06-19T10:18:46.439Z,95.90
2023-06-19T10:21:19.629Z,95.10
2023-06-19T10:23:59.061Z,94.50
2023-06-19T10:26:35.654Z,95.30
2023-06-19T10:29:03.450Z,93.30
2023-06-19T10:31:30.132Z,93.50
2023-06-19T10:33:57.037Z,94.00
2023-06-19T10:36:24.467Z,93.80
2023-06-19T10:38:51.136Z,94.00
2023-06-19T10:41:18.220Z,93.00
2023-06-19T10:43:53.627Z,93.50
2023-06-19T10:46:22.255Z,93.50
2023-06-19T10:48:48.938Z,92.80
2023-06-19T10:51:21.357Z,93.70
2023-06-19T10:53:47.986Z,93.10
2023-06-19T10:56:14.590Z,93.30
2023-06-19T10:58:41.240Z,91.90
2023-06-19T11:01:07.880Z,92.20
2023-06-19T11:03:35.867Z,91.60
2023-06-19T11:06:02.632Z,91.40
2023-06-19T11:08:29.330Z,91.60
2023-06-19T11:10:56.149Z,92.50
2023-06-19T11:13:22.841Z,91.60
2023-06-19T11:15:50.593Z,91.10
2023-06-19T11:18:18.559Z,91.30
2023-06-19T11:20:52.463Z,91.00
2023-06-19T11:23:29.577Z,90.20
2023-06-19T11:26:02.980Z,90.50
2023-06-19T11:28:30.574Z,89.40
2023-06-19T11:31:04.204Z,88.80
2023-06-19T11:33:31.418Z,88.60
2023-06-19T11:36:00.910Z,89.10
2023-06-19T11:38:28.212Z,89.90
2023-06-19T11:40:56.171Z,89.70
2023-06-19T11:43:26.428Z,88.10
2023-06-19T11:45:53.707Z,89.30
2023-06-19T11:48:24.455Z,88.70
2023-06-19T11:50:52.334Z,87.90
2023-06-19T11:53:19.360Z,88.60
2023-06-19T11:55:46.190Z,87.40
2023-06-19T11:58:12.899Z,88.20
2023-06-19T12:00:39.756Z,85.60
2023-06-19T12:03:06.535Z,85.80
2023-06-19T12:05:33.279Z,84.20
2023-06-19T12:08:03.249Z,84.00
2023-06-19T12:10:30.168Z,84.40
2023-06-19T12:12:57.033Z,85.80
2023-06-19T12:15:24.123Z,85.60
2023-06-19T12:17:51.613Z,84.90
2023-06-19T12:20:18.495Z,83.00
2023-06-19T12:22:45.354Z,85.30
2023-06-19T12:25:12.167Z,84.70
2023-06-19T12:27:39.085Z,84.50
2023-06-19T12:30:06.185Z,81.90
2023-06-19T12:32:32.958Z,80.40
2023-06-19T12:34:59.677Z,78.50
2023-06-19T12:37:26.332Z,78.30
2023-06-19T12:39:52.992Z,79.70
2023-06-19T12:42:19.649Z,77.50
2023-06-19T12:44:46.395Z,77.30
2023-06-19T12:47:13.288Z,77.40
2023-06-19T12:49:40.281Z,76.40
2023-06-19T12:52:07.279Z,76.00
2023-06-19T12:54:34.004Z,74.60
2023-06-19T12:57:00.721Z,74.80
2023-06-19T12:59:27.392Z,75.00
2023-06-19T13:01:54.194Z,75.40
2023-06-19T13:04:20.986Z,77.20
2023-06-19T13:06:47.669Z,75.40
2023-06-19T13:09:14.399Z,77.60
2023-06-19T13:11:41.071Z,76.50
2023-06-19T13:14:07.702Z,74.60
2023-06-19T13:16:46.277Z,74.70
2023-06-19T13:19:14.800Z,74.70
2023-06-19T13:21:42.190Z,75.40
2023-06-19T13:24:09.080Z,75.10
2023-06-19T13:26:36.013Z,79.60
2023-06-19T13:29:02.920Z,77.90
2023-06-19T13:31:29.581Z,74.10
2023-06-19T13:33:56.394Z,74.90
2023-06-19T13:36:24.851Z,74.40
2023-06-19T13:38:51.589Z,73.90
2023-06-19T13:41:18.318Z,75.80
2023-06-19T13:43:46.878Z,72.60
2023-06-19T13:46:13.547Z,73.80
2023-06-19T13:48:40.236Z,72.60
2023-06-19T13:51:06.855Z,72.90
2023-06-19T13:53:34.253Z,72.90
2023-06-19T13:56:00.932Z,76.20
2023-06-19T13:58:27.660Z,73.80
2023-06-19T14:00:54.340Z,75.30
2023-06-19T14:03:21.287Z,73.50
2023-06-19T14:05:48.111Z,73.30
2023-06-19T14:08:14.944Z,73.40
2023-06-19T14:10:41.642Z,75.40
2023-06-19T14:13:11.751Z,75.50
2023-06-19T14:15:40.556Z,75.30
2023-06-19T14:18:07.204Z,73.60
2023-06-19T14:20:33.942Z,73.80
2023-06-19T14:23:00.586Z,74.10
2023-06-19T14:25:27.498Z,73.80
2023-06-19T14:27:54.122Z,75.00
2023-06-19T14:30:20.842Z,73.80
2023-06-19T14:32:48.610Z,75.30
2023-06-19T14:35:15.397Z,74.90
2023-06-19T14:37:42.112Z,73.80
2023-06-19T14:40:09.223Z,73.30
2023-06-19T14:42:35.886Z,74.10
2023-06-19T14:45:02.553Z,75.20
2023-06-19T14:47:29.373Z,76.40
2023-06-19T14:49:56.153Z,76.80
2023-06-19T14:52:22.802Z,74.40
2023-06-19T14:54:49.496Z,74.60
2023-06-19T14:57:16.124Z,74.70
2023-06-19T14:59:42.884Z,74.70
2023-06-19T15:02:10.708Z,73.60
2023-06-19T15:04:37.500Z,74.70
2023-06-19T15:07:04.303Z,71.10
2023-06-19T15:09:30.903Z,71.50
2023-06-19T15:11:57.492Z,72.10
2023-06-19T15:14:24.137Z,73.10
2023-06-19T15:16:50.829Z,76.40
2023-06-19T15:19:17.578Z,72.80
2023-06-19T15:21:44.310Z,71.70
2023-06-19T15:24:11.025Z,73.60
2023-06-19T15:26:40.052Z,71.60
2023-06-19T15:29:07.361Z,74.30
2023-06-19T15:31:34.082Z,75.00
2023-06-19T15:34:00.710Z,73.70
2023-06-19T15:36:28.011Z,73.80
2023-06-19T15:38:54.662Z,77.50
2023-06-19T15:41:21.362Z,74.20
2023-06-19T15:43:48.001Z,73.80
2023-06-19T15:46:17.873Z,74.60
2023-06-19T15:48:44.689Z,75.70
2023-06-19T15:51:11.438Z,78.50
2023-06-19T15:53:38.850Z,75.10
2023-06-19T15:56:05.649Z,76.00
2023-06-19T15:58:32.583Z,75.60
2023-06-19T16:00:59.324Z,73.70
2023-06-19T16:03:27.179Z,73.60
2023-06-19T16:08:26.604Z,73.70
2023-06-19T16:10:53.340Z,73.50
2023-06-19T16:13:20.110Z,74.30
2023-06-19T16:15:46.783Z,75.90
2023-06-19T16:18:13.454Z,74.90
2023-06-19T16:20:40.091Z,73.50
2023-06-19T16:23:06.755Z,75.00
2023-06-19T16:25:33.445Z,78.90
2023-06-19T16:28:02.222Z,81.70
2023-06-19T16:30:29.722Z,82.10
2023-06-19T16:32:56.602Z,76.40
2023-06-19T16:35:23.631Z,79.50
2023-06-19T16:37:51.066Z,80.80
2023-06-19T16:40:21.564Z,73.50
2023-06-19T16:42:48.370Z,75.10
2023-06-19T16:45:14.998Z,78.20
2023-06-19T16:47:41.713Z,72.90
2023-06-19T16:50:08.638Z,78.40
2023-06-19T16:52:35.276Z,74.90
2023-06-19T16:55:01.975Z,78.90
2023-06-19T16:57:30.093Z,80.90
2023-06-19T16:59:57.751Z,83.40
2023-06-19T17:02:24.615Z,77.30
2023-06-19T17:04:51.590Z,78.20
2023-06-19T17:07:18.547Z,82.00
2023-06-19T17:09:47.105Z,78.70
2023-06-19T17:12:14.677Z,80.80
2023-06-19T17:14:42.512Z,80.30
2023-06-19T17:17:09.491Z,80.70
2023-06-19T17:19:36.481Z,78.50
2023-06-19T17:22:03.191Z,81.10
2023-06-19T17:24:29.992Z,75.20
2023-06-19T17:26:59.415Z,75.90
2023-06-19T17:29:27.493Z,79.40
2023-06-19T17:31:54.842Z,79.70
2023-06-19T17:34:21.535Z,80.50
2023-06-19T17:36:48.230Z,81.60
2023-06-19T17:39:15.040Z,81.60
2023-06-19T17:41:42.412Z,86.10
2023-06-19T17:44:09.110Z,78.70
2023-06-19T17:46:35.992Z,79.60
2023-06-19T17:49:02.822Z,81.10
2023-06-19T17:51:29.480Z,80.20
2023-06-19T17:53:56.083Z,79.70
2023-06-19T17:56:22.731Z,78.90
2023-06-19T17:58:49.392Z,80.00
2023-06-19T18:01:16.086Z,79.50
2023-06-19T18:03:42.894Z,79.70
2023-06-19T18:06:09.671Z,77.60
2023-06-19T18:08:36.369Z,78.00
2023-06-19T18:11:03.235Z,78.30
2023-06-19T18:13:29.938Z,78.40
2023-06-19T18:16:11.086Z,78.60
2023-06-19T18:18:39.485Z,79.50
2023-06-19T18:21:06.163Z,80.50
2023-06-19T18:23:32.904Z,79.90
2023-06-19T18:25:59.595Z,81.60
2023-06-19T18:28:26.273Z,79.30
2023-06-19T18:30:52.949Z,81.00
2023-06-19T18:33:19.561Z,79.50
2023-06-19T18:35:46.332Z,80.20
2023-06-19T18:38:14.090Z,80.10
2023-06-19T18:40:42.363Z,80.10
2023-06-19T18:43:09.275Z,80.70
2023-06-19T18:45:36.061Z,79.70
2023-06-19T18:48:02.951Z,81.20
2023-06-19T18:50:29.642Z,81.90
2023-06-19T18:52:56.262Z,80.50
2023-06-19T18:55:23.141Z,78.80
2023-06-19T18:57:49.935Z,81.30
2023-06-19T19:00:17.182Z,80.60
2023-06-19T19:02:44.255Z,81.90
2023-06-19T19:05:11.140Z,81.00
2023-06-19T19:07:37.779Z,79.90
2023-06-19T19:10:04.909Z,81.60
2023-06-19T19:12:31.532Z,80.70
2023-06-19T19:14:58.368Z,81.70
2023-06-19T19:17:24.993Z,80.40
2023-06-19T19:19:51.741Z,80.90
2023-06-19T19:22:18.364Z,81.70
2023-06-19T19:24:45.039Z,83.20
2023-06-19T19:27:11.851Z,84.00
2023-06-19T19:29:38.497Z,83.40
2023-06-19T19:32:05.371Z,83.50
2023-06-19T19:34:32.076Z,82.30
2023-06-19T19:36:58.698Z,82.40
2023-06-19T19:39:25.345Z,83.40
2023-06-19T19:41:51.994Z,82.90
2023-06-19T19:44:18.763Z,83.50
2023-06-19T19:46:45.454Z,83.70
2023-06-19T19:49:12.167Z,85.50
2023-06-19T19:51:38.780Z,82.20
2023-06-19T19:54:05.498Z,82.90
2023-06-19T19:56:32.102Z,83.90
2023-06-19T19:58:58.714Z,84.70
2023-06-19T20:01:25.396Z,85.40
2023-06-19T20:03:52.149Z,85.30
2023-06-19T20:06:18.919Z,85.00
2023-06-19T20:08:45.780Z,83.60
2023-06-19T20:11:13.377Z,86.00
2023-06-19T20:13:40.318Z,83.70
2023-06-19T20:16:12.910Z,83.90
2023-06-19T20:18:39.848Z,85.20
2023-06-19T20:21:06.695Z,84.20
2023-06-19T20:23:33.406Z,84.00
2023-06-19T20:26:00.090Z,83.90
2023-06-19T20:28:26.788Z,83.90
2023-06-19T20:30:55.203Z,84.80
2023-06-19T20:33:22.139Z,84.40
2023-06-19T20:35:49.045Z,84.60
2023-06-19T20:38:16.065Z,84.40
2023-06-19T20:40:42.763Z,84.10
2023-06-19T20:43:10.291Z,84.60
2023-06-19T20:45:41.717Z,84.70
2023-06-19T20:48:08.773Z,84.80
2023-06-19T20:50:35.474Z,84.10
2023-06-19T20:53:02.207Z,83.50
2023-06-19T20:55:28.958Z,83.70
2023-06-19T20:57:56.272Z,83.70
2023-06-19T21:00:23.293Z,83.80
2023-06-19T21:02:51.036Z,84.10
2023-06-19T21:05:17.822Z,84.00
2023-06-19T21:07:45.126Z,84.40
2023-06-19T21:10:12.330Z,84.40
2023-06-19T21:12:39.025Z,84.40
2023-06-19T21:15:05.996Z,84.60
2023-06-19T21:17:32.649Z,84.60
2023-06-19T21:19:59.662Z,85.20
2023-06-19T21:22:26.261Z,84.90
2023-06-19T21:24:52.893Z,84.90
2023-06-19T21:27:19.596Z,84.90
2023-06-19T21:29:46.237Z,84.70
2023-06-19T21:32:12.825Z,85.30
2023-06-19T21:34:39.443Z,84.50
2023-06-19T21:37:06.303Z,84.40
2023-06-19T21:39:32.929Z,84.30
2023-06-19T21:41:59.547Z,84.40
2023-06-19T21:44:26.198Z,84.90
2023-06-19T21:46:52.813Z,84.80
2023-06-19T21:49:19.503Z,85.00
2023-06-19T21:51:46.152Z,84.60
2023-06-19T21:54:12.778Z,85.10
2023-06-19T21:56:39.521Z,85.30
2023-06-19T21:59:06.226Z,85.20
2023-06-19T22:01:32.906Z,85.60
2023-06-19T22:03:59.620Z,85.20
2023-06-19T22:06:26.330Z,85.70
2023-06-19T22:08:53.143Z,85.40
2023-06-19T22:11:19.766Z,85.70
2023-06-19T22:13:46.369Z,85.50
2023-06-19T22:16:13.062Z,85.70
2023-06-19T22:18:39.809Z,85.80
2023-06-19T22:21:06.505Z,86.10
2023-06-19T22:23:33.516Z,86.00
2023-06-19T22:26:00.151Z,86.40
2023-06-19T22:28:26.778Z,87.00
2023-06-19T22:30:53.416Z,87.40
2023-06-19T22:33:20.004Z,87.20
2023-06-19T22:35:46.724Z,87.00
2023-06-19T22:38:13.536Z,87.30
2023-06-19T22:40:40.716Z,87.80
2023-06-19T22:43:07.360Z,87.70
2023-06-19T22:45:34.183Z,87.70
2023-06-19T22:48:01.257Z,88.10
2023-06-19T22:50:27.986Z,88.60
2023-06-19T22:52:56.263Z,88.70
2023-06-19T22:55:23.198Z,88.70
2023-06-19T22:57:50.151Z,88.90
2023-06-19T23:00:16.891Z,88.80
2023-06-19T23:02:44.120Z,89.10
2023-06-19T23:05:11.607Z,89.00
2023-06-19T23:07:38.511Z,89.30
2023-06-19T23:10:05.409Z,89.50
2023-06-19T23:12:32.124Z,89.90
2023-06-19T23:14:58.735Z,89.50
2023-06-19T23:17:25.503Z,89.70
2023-06-19T23:19:52.354Z,90.40
2023-06-19T23:22:19.021Z,90.10
2023-06-19T23:24:45.706Z,90.10
2023-06-19T23:27:12.406Z,90.20
2023-06-19T23:29:39.099Z,90.30
2023-06-19T23:32:05.807Z,90.30
2023-06-19T23:34:33.553Z,90.40
2023-06-19T23:37:00.492Z,90.20
2023-06-19T23:39:27.123Z,90.50
2023-06-19T23:41:53.779Z,90.50
2023-06-19T23:44:20.953Z,90.50
2023-06-19T23:46:48.041Z,90.60
2023-06-19T23:49:14.801Z,90.80
2023-06-19T23:51:42.202Z,90.90
2023-06-19T23:54:08.852Z,90.90
2023-06-19T23:56:35.533Z,90.80
2023-06-19T23:59:02.151Z,90.90
